sensor_id;sensor_type;location;lat;lon;timestamp;pressure;altitude;pressure_sealevel;temperature;humidity
42297;BME280;28985;47.456;19.016;2022-09-02T00:01:16;100456.53;;;16.60;49.37
42297;BME280;28985;47.456;19.016;2022-09-02T00:03:43;100458.91;;;16.63;50.58
42297;BME280;28985;47.456;19.016;2022-09-02T00:06:10;100449.38;;;16.67;50.21
42297;BME280;28985;47.456;19.016;2022-09-02T00:08:37;100461.56;;;16.71;49.29
42297;BME280;28985;47.456;19.016;2022-09-02T00:11:04;100456.13;;;16.80;51.60
42297;BME280;28985;47.456;19.016;2022-09-02T00:13:33;100453.72;;;16.85;49.99
42297;BME280;28985;47.456;19.016;2022-09-02T00:16:01;100439.94;;;16.86;48.19
42297;BME280;28985;47.456;19.016;2022-09-02T00:18:29;100437.75;;;16.82;48.36
42297;BME280;28985;47.456;19.016;2022-09-02T00:20:55;100439.81;;;16.80;48.18
42297;BME280;28985;47.456;19.016;2022-09-02T00:23:22;100434.00;;;16.83;47.55
42297;BME280;28985;47.456;19.016;2022-09-02T00:25:52;100434.38;;;16.80;46.31
42297;BME280;28985;47.456;19.016;2022-09-02T00:28:19;100442.53;;;16.80;47.83
42297;BME280;28985;47.456;19.016;2022-09-02T00:30:45;100441.69;;;16.79;46.92
42297;BME280;28985;47.456;19.016;2022-09-02T00:33:12;100440.66;;;16.80;47.12
42297;BME280;28985;47.456;19.016;2022-09-02T00:35:39;100433.34;;;16.81;47.29
42297;BME280;28985;47.456;19.016;2022-09-02T00:38:09;100433.19;;;16.82;46.97
42297;BME280;28985;47.456;19.016;2022-09-02T00:40:36;100430.97;;;16.77;46.78
42297;BME280;28985;47.456;19.016;2022-09-02T00:43:07;100427.44;;;16.77;46.51
42297;BME280;28985;47.456;19.016;2022-09-02T00:45:35;100432.00;;;16.76;47.26
42297;BME280;28985;47.456;19.016;2022-09-02T00:48:03;100429.13;;;16.78;46.72
42297;BME280;28985;47.456;19.016;2022-09-02T00:50:33;100426.34;;;16.86;47.65
42297;BME280;28985;47.456;19.016;2022-09-02T00:53:07;100431.25;;;16.91;47.03
42297;BME280;28985;47.456;19.016;2022-09-02T00:55:42;100429.53;;;16.90;46.94
42297;BME280;28985;47.456;19.016;2022-09-02T00:58:19;100422.25;;;16.90;47.26
42297;BME280;28985;47.456;19.016;2022-09-02T01:00:50;100426.00;;;16.89;46.80
42297;BME280;28985;47.456;19.016;2022-09-02T01:03:24;100426.16;;;16.88;46.56
42297;BME280;28985;47.456;19.016;2022-09-02T01:05:53;100424.00;;;16.83;47.11
42297;BME280;28985;47.456;19.016;2022-09-02T01:08:27;100422.47;;;16.81;46.64
42297;BME280;28985;47.456;19.016;2022-09-02T01:10:57;100428.56;;;16.83;46.83
42297;BME280;28985;47.456;19.016;2022-09-02T01:13:27;100426.88;;;16.82;45.80
42297;BME280;28985;47.456;19.016;2022-09-02T01:16:00;100427.06;;;16.80;45.83
42297;BME280;28985;47.456;19.016;2022-09-02T01:18:29;100424.53;;;16.78;46.80
42297;BME280;28985;47.456;19.016;2022-09-02T01:20:58;100423.84;;;16.76;45.77
42297;BME280;28985;47.456;19.016;2022-09-02T01:23:26;100428.22;;;16.86;47.48
42297;BME280;28985;47.456;19.016;2022-09-02T01:25:59;100420.38;;;16.91;45.20
42297;BME280;28985;47.456;19.016;2022-09-02T01:28:25;100423.72;;;17.01;47.26
42297;BME280;28985;47.456;19.016;2022-09-02T01:30:53;100425.59;;;17.01;44.89
42297;BME280;28985;47.456;19.016;2022-09-02T01:33:21;100419.69;;;16.97;45.87
42297;BME280;28985;47.456;19.016;2022-09-02T01:35:50;100423.75;;;16.93;46.09
42297;BME280;28985;47.456;19.016;2022-09-02T01:38:18;100421.38;;;16.90;45.58
42297;BME280;28985;47.456;19.016;2022-09-02T01:40:46;100424.97;;;16.90;46.53
42297;BME280;28985;47.456;19.016;2022-09-02T01:43:16;100424.47;;;16.87;46.35
42297;BME280;28985;47.456;19.016;2022-09-02T01:45:46;100419.38;;;16.84;47.63
42297;BME280;28985;47.456;19.016;2022-09-02T01:48:13;100428.25;;;16.77;45.79
42297;BME280;28985;47.456;19.016;2022-09-02T01:50:54;100422.41;;;16.89;48.42
42297;BME280;28985;47.456;19.016;2022-09-02T01:53:21;100420.16;;;17.01;46.12
42297;BME280;28985;47.456;19.016;2022-09-02T01:55:48;100417.44;;;17.01;45.98
42297;BME280;28985;47.456;19.016;2022-09-02T01:58:15;100419.19;;;16.94;46.37
42297;BME280;28985;47.456;19.016;2022-09-02T02:00:41;100411.53;;;16.89;45.49
42297;BME280;28985;47.456;19.016;2022-09-02T02:03:08;100413.59;;;16.87;44.82
42297;BME280;28985;47.456;19.016;2022-09-02T02:05:35;100410.56;;;16.82;45.76
42297;BME280;28985;47.456;19.016;2022-09-02T02:08:03;100414.50;;;16.79;46.84
42297;BME280;28985;47.456;19.016;2022-09-02T02:10:29;100408.31;;;16.94;46.82
42297;BME280;28985;47.456;19.016;2022-09-02T02:12:56;100414.94;;;16.91;45.21
42297;BME280;28985;47.456;19.016;2022-09-02T02:15:23;100404.09;;;16.83;46.45
42297;BME280;28985;47.456;19.016;2022-09-02T02:17:49;100411.22;;;16.84;47.27
42297;BME280;28985;47.456;19.016;2022-09-02T02:20:16;100404.91;;;16.91;45.52
42297;BME280;28985;47.456;19.016;2022-09-02T02:22:44;100406.78;;;16.91;44.94
42297;BME280;28985;47.456;19.016;2022-09-02T02:25:12;100406.78;;;16.91;45.09
42297;BME280;28985;47.456;19.016;2022-09-02T02:27:41;100406.47;;;16.86;44.78
42297;BME280;28985;47.456;19.016;2022-09-02T02:30:10;100411.75;;;16.87;47.50
42297;BME280;28985;47.456;19.016;2022-09-02T02:32:37;100408.22;;;17.10;49.41
42297;BME280;28985;47.456;19.016;2022-09-02T02:35:04;100405.88;;;17.07;47.38
42297;BME280;28985;47.456;19.016;2022-09-02T02:37:32;100403.47;;;17.12;48.24
42297;BME280;28985;47.456;19.016;2022-09-02T02:39:58;100406.56;;;17.01;46.48
42297;BME280;28985;47.456;19.016;2022-09-02T02:42:25;100400.97;;;16.94;49.06
42297;BME280;28985;47.456;19.016;2022-09-02T02:44:52;100394.41;;;16.88;48.99
42297;BME280;28985;47.456;19.016;2022-09-02T02:47:18;100395.63;;;16.77;50.88
42297;BME280;28985;47.456;19.016;2022-09-02T02:49:45;100395.16;;;16.74;47.54
42297;BME280;28985;47.456;19.016;2022-09-02T02:52:12;100398.88;;;16.73;47.15
42297;BME280;28985;47.456;19.016;2022-09-02T02:54:39;100398.56;;;16.68;47.64
42297;BME280;28985;47.456;19.016;2022-09-02T02:57:07;100402.00;;;16.61;47.34
42297;BME280;28985;47.456;19.016;2022-09-02T02:59:34;100402.16;;;16.60;48.36
42297;BME280;28985;47.456;19.016;2022-09-02T03:02:03;100406.59;;;16.61;47.70
42297;BME280;28985;47.456;19.016;2022-09-02T03:04:30;100400.81;;;16.64;47.28
42297;BME280;28985;47.456;19.016;2022-09-02T03:06:57;100409.50;;;16.91;49.93
42297;BME280;28985;47.456;19.016;2022-09-02T03:09:24;100401.34;;;16.91;48.20
42297;BME280;28985;47.456;19.016;2022-09-02T03:11:50;100400.91;;;16.79;46.72
42297;BME280;28985;47.456;19.016;2022-09-02T03:14:17;100394.38;;;16.57;45.70
42297;BME280;28985;47.456;19.016;2022-09-02T03:16:44;100389.44;;;16.60;48.53
42297;BME280;28985;47.456;19.016;2022-09-02T03:19:10;100396.03;;;16.66;49.51
42297;BME280;28985;47.456;19.016;2022-09-02T03:21:40;100397.59;;;16.60;47.41
42297;BME280;28985;47.456;19.016;2022-09-02T03:24:08;100397.44;;;16.54;48.14
42297;BME280;28985;47.456;19.016;2022-09-02T03:26:35;100395.25;;;16.49;46.95
42297;BME280;28985;47.456;19.016;2022-09-02T03:29:03;100395.09;;;16.50;49.41
42297;BME280;28985;47.456;19.016;2022-09-02T03:31:29;100390.38;;;16.44;48.24
42297;BME280;28985;47.456;19.016;2022-09-02T03:33:56;100393.09;;;16.44;49.25
42297;BME280;28985;47.456;19.016;2022-09-02T03:36:34;100401.22;;;16.44;46.92
42297;BME280;28985;47.456;19.016;2022-09-02T03:39:02;100395.91;;;16.59;51.07
42297;BME280;28985;47.456;19.016;2022-09-02T03:41:29;100398.75;;;16.66;46.93
42297;BME280;28985;47.456;19.016;2022-09-02T03:43:56;100400.16;;;16.54;46.39
42297;BME280;28985;47.456;19.016;2022-09-02T03:46:23;100398.63;;;16.51;47.32
42297;BME280;28985;47.456;19.016;2022-09-02T03:48:50;100395.47;;;16.39;50.15
42297;BME280;28985;47.456;19.016;2022-09-02T03:51:19;100394.16;;;16.18;47.16
42297;BME280;28985;47.456;19.016;2022-09-02T03:53:46;100395.53;;;16.22;49.17
42297;BME280;28985;47.456;19.016;2022-09-02T03:56:14;100393.34;;;16.18;50.57
42297;BME280;28985;47.456;19.016;2022-09-02T03:58:45;100399.97;;;16.07;48.71
42297;BME280;28985;47.456;19.016;2022-09-02T04:01:15;100394.38;;;16.08;50.93
42297;BME280;28985;47.456;19.016;2022-09-02T04:03:43;100391.44;;;16.18;48.96
42297;BME280;28985;47.456;19.016;2022-09-02T04:06:10;100394.16;;;16.18;50.10
42297;BME280;28985;47.456;19.016;2022-09-02T04:08:39;100398.59;;;16.19;47.87
42297;BME280;28985;47.456;19.016;2022-09-02T04:11:08;100396.03;;;16.26;51.79
42297;BME280;28985;47.456;19.016;2022-09-02T04:13:35;100391.94;;;16.30;48.01
42297;BME280;28985;47.456;19.016;2022-09-02T04:16:07;100395.69;;;16.29;48.45
42297;BME280;28985;47.456;19.016;2022-09-02T04:18:36;100391.41;;;16.43;48.90
42297;BME280;28985;47.456;19.016;2022-09-02T04:21:03;100393.19;;;16.51;47.22
42297;BME280;28985;47.456;19.016;2022-09-02T04:23:30;100397.31;;;16.47;47.72
42297;BME280;28985;47.456;19.016;2022-09-02T04:25:58;100400.59;;;16.34;48.06
42297;BME280;28985;47.456;19.016;2022-09-02T04:28:28;100400.75;;;16.41;48.80
42297;BME280;28985;47.456;19.016;2022-09-02T04:30:54;100390.84;;;16.48;47.03
42297;BME280;28985;47.456;19.016;2022-09-02T04:33:21;100395.31;;;16.41;47.07
42297;BME280;28985;47.456;19.016;2022-09-02T04:35:48;100386.44;;;16.47;48.52
42297;BME280;28985;47.456;19.016;2022-09-02T04:38:15;100402.75;;;16.38;47.87
42297;BME280;28985;47.456;19.016;2022-09-02T04:40:44;100398.97;;;16.56;47.73
42297;BME280;28985;47.456;19.016;2022-09-02T04:43:12;100408.28;;;16.62;47.37
42297;BME280;28985;47.456;19.016;2022-09-02T04:45:40;100410.03;;;16.55;46.87
42297;BME280;28985;47.456;19.016;2022-09-02T04:48:06;100408.25;;;16.70;50.46
42297;BME280;28985;47.456;19.016;2022-09-02T04:50:35;100405.31;;;16.80;47.54
42297;BME280;28985;47.456;19.016;2022-09-02T04:53:03;100407.38;;;17.01;50.17
42297;BME280;28985;47.456;19.016;2022-09-02T04:55:31;100407.72;;;17.07;48.16
42297;BME280;28985;47.456;19.016;2022-09-02T04:57:58;100406.22;;;17.04;46.40
42297;BME280;28985;47.456;19.016;2022-09-02T05:00:25;100415.94;;;16.90;46.99
42297;BME280;28985;47.456;19.016;2022-09-02T05:02:54;100411.13;;;17.00;47.80
42297;BME280;28985;47.456;19.016;2022-09-02T05:05:21;100415.59;;;16.93;46.03
42297;BME280;28985;47.456;19.016;2022-09-02T05:07:47;100415.78;;;16.91;47.56
42297;BME280;28985;47.456;19.016;2022-09-02T05:10:14;100418.63;;;17.07;46.91
42297;BME280;28985;47.456;19.016;2022-09-02T05:12:42;100421.72;;;17.03;45.81
42297;BME280;28985;47.456;19.016;2022-09-02T05:15:10;100423.53;;;17.11;48.00
42297;BME280;28985;47.456;19.016;2022-09-02T05:17:37;100419.06;;;17.42;48.51
42297;BME280;28985;47.456;19.016;2022-09-02T05:20:06;100422.72;;;17.73;49.23
42297;BME280;28985;47.456;19.016;2022-09-02T05:22:34;100420.19;;;17.71;45.64
42297;BME280;28985;47.456;19.016;2022-09-02T05:25:03;100416.03;;;17.60;47.62
42297;BME280;28985;47.456;19.016;2022-09-02T05:27:30;100416.81;;;17.69;47.48
42297;BME280;28985;47.456;19.016;2022-09-02T05:29:58;100423.31;;;17.83;46.54
42297;BME280;28985;47.456;19.016;2022-09-02T05:32:25;100421.06;;;17.87;46.50
42297;BME280;28985;47.456;19.016;2022-09-02T05:34:53;100421.72;;;17.89;46.33
42297;BME280;28985;47.456;19.016;2022-09-02T05:37:22;100422.00;;;17.79;46.70
42297;BME280;28985;47.456;19.016;2022-09-02T05:39:50;100421.59;;;17.67;45.24
42297;BME280;28985;47.456;19.016;2022-09-02T05:42:17;100418.31;;;17.71;47.22
42297;BME280;28985;47.456;19.016;2022-09-02T05:44:45;100417.63;;;17.69;46.26
42297;BME280;28985;47.456;19.016;2022-09-02T05:47:12;100422.81;;;17.64;46.10
42297;BME280;28985;47.456;19.016;2022-09-02T05:49:38;100419.59;;;17.61;46.40
42297;BME280;28985;47.456;19.016;2022-09-02T05:52:05;100412.44;;;17.60;47.46
42297;BME280;28985;47.456;19.016;2022-09-02T05:54:37;100419.16;;;17.72;46.62
42297;BME280;28985;47.456;19.016;2022-09-02T05:57:07;100419.19;;;17.87;46.48
42297;BME280;28985;47.456;19.016;2022-09-02T05:59:35;100418.19;;;17.88;48.06
42297;BME280;28985;47.456;19.016;2022-09-02T06:02:04;100414.03;;;17.92;47.76
42297;BME280;28985;47.456;19.016;2022-09-02T06:04:36;100416.41;;;17.95;47.30
42297;BME280;28985;47.456;19.016;2022-09-02T06:07:03;100423.22;;;17.91;47.42
42297;BME280;28985;47.456;19.016;2022-09-02T06:09:29;100416.56;;;17.94;46.82
42297;BME280;28985;47.456;19.016;2022-09-02T06:11:56;100421.25;;;18.08;47.29
42297;BME280;28985;47.456;19.016;2022-09-02T06:14:24;100416.28;;;18.12;45.95
42297;BME280;28985;47.456;19.016;2022-09-02T06:16:52;100420.50;;;18.15;44.91
42297;BME280;28985;47.456;19.016;2022-09-02T06:19:21;100429.41;;;18.08;46.49
42297;BME280;28985;47.456;19.016;2022-09-02T06:21:48;100424.66;;;18.02;47.05
42297;BME280;28985;47.456;19.016;2022-09-02T06:24:14;100424.00;;;18.00;47.12
42297;BME280;28985;47.456;19.016;2022-09-02T06:26:41;100428.41;;;18.01;46.80
42297;BME280;28985;47.456;19.016;2022-09-02T06:29:09;100424.38;;;17.97;46.71
42297;BME280;28985;47.456;19.016;2022-09-02T06:31:36;100432.75;;;17.95;47.06
42297;BME280;28985;47.456;19.016;2022-09-02T06:34:05;100430.00;;;17.95;45.96
42297;BME280;28985;47.456;19.016;2022-09-02T06:36:31;100431.53;;;17.98;45.87
42297;BME280;28985;47.456;19.016;2022-09-02T06:38:59;100428.97;;;17.96;45.77
42297;BME280;28985;47.456;19.016;2022-09-02T06:41:30;100430.78;;;18.04;45.89
42297;BME280;28985;47.456;19.016;2022-09-02T06:44:02;100434.19;;;18.06;47.01
42297;BME280;28985;47.456;19.016;2022-09-02T06:46:38;100437.59;;;18.08;45.80
42297;BME280;28985;47.456;19.016;2022-09-02T06:49:07;100429.03;;;18.11;46.27
42297;BME280;28985;47.456;19.016;2022-09-02T06:51:40;100437.03;;;18.13;46.25
42297;BME280;28985;47.456;19.016;2022-09-02T06:54:09;100433.25;;;18.14;45.28
42297;BME280;28985;47.456;19.016;2022-09-02T06:56:40;100422.66;;;18.19;46.69
42297;BME280;28985;47.456;19.016;2022-09-02T06:59:13;100432.97;;;18.24;45.52
42297;BME280;28985;47.456;19.016;2022-09-02T07:01:40;100425.97;;;18.30;47.03
42297;BME280;28985;47.456;19.016;2022-09-02T07:04:07;100431.13;;;18.40;45.10
42297;BME280;28985;47.456;19.016;2022-09-02T07:06:53;100432.44;;;18.44;45.94
42297;BME280;28985;47.456;19.016;2022-09-02T07:09:24;100433.56;;;18.49;45.25
42297;BME280;28985;47.456;19.016;2022-09-02T07:11:58;100430.94;;;18.56;44.99
42297;BME280;28985;47.456;19.016;2022-09-02T07:14:30;100432.50;;;18.65;46.25
42297;BME280;28985;47.456;19.016;2022-09-02T07:16:57;100422.72;;;18.71;45.56
42297;BME280;28985;47.456;19.016;2022-09-02T07:19:25;100430.34;;;18.76;45.38
42297;BME280;28985;47.456;19.016;2022-09-02T07:21:52;100432.03;;;18.77;45.73
42297;BME280;28985;47.456;19.016;2022-09-02T07:24:20;100429.38;;;18.84;45.69
42297;BME280;28985;47.456;19.016;2022-09-02T07:26:47;100427.69;;;18.83;45.05
42297;BME280;28985;47.456;19.016;2022-09-02T07:29:14;100430.03;;;18.86;44.40
42297;BME280;28985;47.456;19.016;2022-09-02T07:31:43;100435.22;;;18.81;45.82
42297;BME280;28985;47.456;19.016;2022-09-02T07:34:10;100432.22;;;18.75;46.89
42297;BME280;28985;47.456;19.016;2022-09-02T07:36:37;100432.41;;;18.74;47.45
42297;BME280;28985;47.456;19.016;2022-09-02T07:39:06;100432.88;;;18.77;47.33
42297;BME280;28985;47.456;19.016;2022-09-02T07:41:34;100431.25;;;18.83;47.50
42297;BME280;28985;47.456;19.016;2022-09-02T07:44:01;100432.00;;;18.92;46.19
42297;BME280;28985;47.456;19.016;2022-09-02T07:46:28;100432.84;;;18.92;45.62
42297;BME280;28985;47.456;19.016;2022-09-02T07:49:01;100429.44;;;18.90;46.17
42297;BME280;28985;47.456;19.016;2022-09-02T07:51:36;100426.44;;;19.00;46.07
42297;BME280;28985;47.456;19.016;2022-09-02T07:54:04;100430.94;;;19.08;46.69
42297;BME280;28985;47.456;19.016;2022-09-02T07:56:32;100427.25;;;19.16;45.80
42297;BME280;28985;47.456;19.016;2022-09-02T07:58:58;100434.03;;;19.20;45.78
42297;BME280;28985;47.456;19.016;2022-09-02T08:01:25;100431.56;;;19.25;45.42
42297;BME280;28985;47.456;19.016;2022-09-02T08:03:52;100420.66;;;19.25;44.19
42297;BME280;28985;47.456;19.016;2022-09-02T08:06:20;100430.34;;;19.28;45.69
42297;BME280;28985;47.456;19.016;2022-09-02T08:09:02;100429.16;;;19.37;45.85
42297;BME280;28985;47.456;19.016;2022-09-02T08:11:29;100431.31;;;19.42;45.34
42297;BME280;28985;47.456;19.016;2022-09-02T08:13:58;100432.59;;;19.46;46.18
42297;BME280;28985;47.456;19.016;2022-09-02T08:16:25;100435.00;;;19.56;47.93
42297;BME280;28985;47.456;19.016;2022-09-02T08:18:52;100430.19;;;19.58;45.03
42297;BME280;28985;47.456;19.016;2022-09-02T08:21:19;100420.38;;;19.64;45.38
42297;BME280;28985;47.456;19.016;2022-09-02T08:23:45;100421.06;;;19.72;45.32
42297;BME280;28985;47.456;19.016;2022-09-02T08:26:14;100417.53;;;19.79;45.91
42297;BME280;28985;47.456;19.016;2022-09-02T08:28:43;100422.63;;;19.82;44.52
42297;BME280;28985;47.456;19.016;2022-09-02T08:31:09;100418.47;;;19.86;45.88
42297;BME280;28985;47.456;19.016;2022-09-02T08:33:36;100409.22;;;19.87;44.74
42297;BME280;28985;47.456;19.016;2022-09-02T08:36:07;100415.88;;;19.99;46.45
42297;BME280;28985;47.456;19.016;2022-09-02T08:38:36;100408.16;;;20.10;45.13
42297;BME280;28985;47.456;19.016;2022-09-02T08:41:19;100406.38;;;20.24;43.20
42297;BME280;28985;47.456;19.016;2022-09-02T08:43:46;100407.88;;;20.33;45.03
42297;BME280;28985;47.456;19.016;2022-09-02T08:46:16;100403.50;;;20.39;43.70
42297;BME280;28985;47.456;19.016;2022-09-02T08:49:07;100403.31;;;20.47;44.74
42297;BME280;28985;47.456;19.016;2022-09-02T08:51:51;100402.31;;;20.55;44.16
42297;BME280;28985;47.456;19.016;2022-09-02T08:57:07;100406.97;;;20.68;44.36
42297;BME280;28985;47.456;19.016;2022-09-02T08:59:36;100408.25;;;20.72;43.55
42297;BME280;28985;47.456;19.016;2022-09-02T09:13:09;100404.59;;;20.93;43.13
42297;BME280;28985;47.456;19.016;2022-09-02T09:18:15;100402.50;;;21.02;44.33
42297;BME280;28985;47.456;19.016;2022-09-02T09:20:44;100402.31;;;21.04;44.94
42297;BME280;28985;47.456;19.016;2022-09-02T09:25:48;100393.72;;;21.27;44.75
42297;BME280;28985;47.456;19.016;2022-09-02T09:28:17;100400.22;;;21.26;44.43
42297;BME280;28985;47.456;19.016;2022-09-02T09:30:44;100391.41;;;21.31;44.40
42297;BME280;28985;47.456;19.016;2022-09-02T09:33:14;100396.47;;;21.41;43.65
42297;BME280;28985;47.456;19.016;2022-09-02T09:35:54;100392.28;;;21.58;44.53
42297;BME280;28985;47.456;19.016;2022-09-02T09:38:29;100392.91;;;21.74;44.38
42297;BME280;28985;47.456;19.016;2022-09-02T09:41:17;100385.94;;;21.92;45.32
42297;BME280;28985;47.456;19.016;2022-09-02T09:43:46;100375.59;;;22.14;42.87
42297;BME280;28985;47.456;19.016;2022-09-02T09:46:24;100384.59;;;22.35;41.49
42297;BME280;28985;47.456;19.016;2022-09-02T09:48:52;100380.75;;;22.56;41.06
42297;BME280;28985;47.456;19.016;2022-09-02T09:51:18;100383.47;;;22.70;39.80
42297;BME280;28985;47.456;19.016;2022-09-02T09:53:45;100383.75;;;22.93;41.59
42297;BME280;28985;47.456;19.016;2022-09-02T10:04:01;100376.31;;;23.65;39.66
42297;BME280;28985;47.456;19.016;2022-09-02T10:09:01;100366.81;;;24.05;40.36
42297;BME280;28985;47.456;19.016;2022-09-02T10:11:33;100359.91;;;24.21;37.69
42297;BME280;28985;47.456;19.016;2022-09-02T10:14:06;100361.44;;;24.36;37.45
42297;BME280;28985;47.456;19.016;2022-09-02T10:19:28;100374.09;;;24.56;39.39
42297;BME280;28985;47.456;19.016;2022-09-02T10:25:28;100374.59;;;24.52;37.81
42297;BME280;28985;47.456;19.016;2022-09-02T10:37:24;100382.00;;;24.15;37.13
42297;BME280;28985;47.456;19.016;2022-09-02T10:42:39;100374.41;;;24.10;37.10
42297;BME280;28985;47.456;19.016;2022-09-02T10:45:23;100374.91;;;24.00;38.15
42297;BME280;28985;47.456;19.016;2022-09-02T10:50:54;100369.34;;;24.07;38.66
42297;BME280;28985;47.456;19.016;2022-09-02T10:53:42;100368.50;;;24.06;39.50
42297;BME280;28985;47.456;19.016;2022-09-02T10:56:17;100361.84;;;24.21;37.71
42297;BME280;28985;47.456;19.016;2022-09-02T11:01:21;100364.75;;;24.26;39.05
42297;BME280;28985;47.456;19.016;2022-09-02T11:04:11;100363.19;;;24.49;40.84
42297;BME280;28985;47.456;19.016;2022-09-02T11:06:49;100363.69;;;24.58;36.36
42297;BME280;28985;47.456;19.016;2022-09-02T11:09:47;100363.53;;;24.71;37.84
42297;BME280;28985;47.456;19.016;2022-09-02T11:12:31;100363.03;;;24.62;37.90
42297;BME280;28985;47.456;19.016;2022-09-02T11:15:09;100360.94;;;24.76;38.36
42297;BME280;28985;47.456;19.016;2022-09-02T11:18:03;100356.38;;;25.01;37.57
42297;BME280;28985;47.456;19.016;2022-09-02T11:23:11;100362.09;;;24.99;34.50
42297;BME280;28985;47.456;19.016;2022-09-02T11:25:54;100352.53;;;25.02;37.77
42297;BME280;28985;47.456;19.016;2022-09-02T11:31:04;100344.00;;;25.34;38.14
42297;BME280;28985;47.456;19.016;2022-09-02T11:33:50;100336.16;;;25.62;37.14
42297;BME280;28985;47.456;19.016;2022-09-02T11:36:18;100344.19;;;25.75;39.02
42297;BME280;28985;47.456;19.016;2022-09-02T11:44:47;100334.72;;;26.77;34.18
42297;BME280;28985;47.456;19.016;2022-09-02T11:53:29;100330.66;;;27.26;35.33
42297;BME280;28985;47.456;19.016;2022-09-02T11:56:01;100317.81;;;27.54;31.91
42297;BME280;28985;47.456;19.016;2022-09-02T11:58:32;100313.91;;;27.84;33.06
42297;BME280;28985;47.456;19.016;2022-09-02T12:01:49;100317.97;;;27.98;32.81
42297;BME280;28985;47.456;19.016;2022-09-02T12:03:55;100321.91;;;28.03;32.90
42297;BME280;28985;47.456;19.016;2022-09-02T12:09:46;100318.19;;;28.36;33.14
42297;BME280;28985;47.456;19.016;2022-09-02T12:18:05;100316.00;;;28.38;28.44
42297;BME280;28985;47.456;19.016;2022-09-02T12:31:51;100310.81;;;27.63;30.36
42297;BME280;28985;47.456;19.016;2022-09-02T12:36:55;100308.81;;;27.58;33.34
42297;BME280;28985;47.456;19.016;2022-09-02T12:47:58;100298.09;;;28.01;30.72
42297;BME280;28985;47.456;19.016;2022-09-02T12:58:43;100297.69;;;29.15;27.77
42297;BME280;28985;47.456;19.016;2022-09-02T13:04:05;100277.63;;;30.42;29.70
42297;BME280;28985;47.456;19.016;2022-09-02T13:21:16;100284.31;;;30.67;25.46
42297;BME280;28985;47.456;19.016;2022-09-02T13:32:22;100272.78;;;29.58;27.25
42297;BME280;28985;47.456;19.016;2022-09-02T13:34:51;100277.66;;;29.45;28.70
42297;BME280;28985;47.456;19.016;2022-09-02T13:37:40;100281.19;;;29.35;27.82
42297;BME280;28985;47.456;19.016;2022-09-02T13:40:20;100278.34;;;28.65;27.27
42297;BME280;28985;47.456;19.016;2022-09-02T13:42:56;100278.00;;;28.34;30.04
42297;BME280;28985;47.456;19.016;2022-09-02T13:45:28;100268.34;;;28.36;31.26
42297;BME280;28985;47.456;19.016;2022-09-02T13:48:02;100263.97;;;28.18;29.68
42297;BME280;28985;47.456;19.016;2022-09-02T13:50:32;100266.94;;;28.61;30.17
42297;BME280;28985;47.456;19.016;2022-09-02T13:53:01;100257.16;;;29.46;30.04
42297;BME280;28985;47.456;19.016;2022-09-02T13:55:52;100249.75;;;30.11;26.07
42297;BME280;28985;47.456;19.016;2022-09-02T13:58:24;100261.84;;;30.84;27.46
42297;BME280;28985;47.456;19.016;2022-09-02T14:00:57;100263.78;;;31.51;27.26
42297;BME280;28985;47.456;19.016;2022-09-02T14:03:28;100261.84;;;31.26;27.58
42297;BME280;28985;47.456;19.016;2022-09-02T14:05:58;100256.59;;;31.19;26.73
42297;BME280;28985;47.456;19.016;2022-09-02T14:08:26;100262.16;;;31.08;25.88
42297;BME280;28985;47.456;19.016;2022-09-02T14:10:54;100263.41;;;30.23;27.24
42297;BME280;28985;47.456;19.016;2022-09-02T14:13:23;100260.75;;;29.47;27.62
42297;BME280;28985;47.456;19.016;2022-09-02T14:15:50;100264.97;;;29.17;29.11
42297;BME280;28985;47.456;19.016;2022-09-02T14:18:21;100268.09;;;28.93;28.66
42297;BME280;28985;47.456;19.016;2022-09-02T14:23:50;100261.03;;;28.25;29.27
42297;BME280;28985;47.456;19.016;2022-09-02T14:26:27;100261.78;;;27.98;30.46
42297;BME280;28985;47.456;19.016;2022-09-02T14:28:57;100266.34;;;27.87;29.46
42297;BME280;28985;47.456;19.016;2022-09-02T14:31:27;100264.13;;;27.67;33.18
42297;BME280;28985;47.456;19.016;2022-09-02T14:33:56;100265.25;;;27.88;32.44
42297;BME280;28985;47.456;19.016;2022-09-02T14:38:54;100262.28;;;28.17;31.00
42297;BME280;28985;47.456;19.016;2022-09-02T14:41:24;100269.50;;;27.73;30.16
42297;BME280;28985;47.456;19.016;2022-09-02T14:43:57;100271.72;;;27.37;30.72
42297;BME280;28985;47.456;19.016;2022-09-02T14:46:29;100269.78;;;27.03;30.72
42297;BME280;28985;47.456;19.016;2022-09-02T14:49:07;100272.84;;;26.90;32.85
42297;BME280;28985;47.456;19.016;2022-09-02T14:51:57;100269.16;;;26.84;32.85
42297;BME280;28985;47.456;19.016;2022-09-02T14:54:42;100272.97;;;26.37;33.71
42297;BME280;28985;47.456;19.016;2022-09-02T14:57:29;100272.28;;;26.18;32.52
42297;BME280;28985;47.456;19.016;2022-09-02T15:04:56;100279.38;;;26.13;33.23
42297;BME280;28985;47.456;19.016;2022-09-02T15:07:24;100279.63;;;26.00;33.61
42297;BME280;28985;47.456;19.016;2022-09-02T15:09:51;100288.56;;;25.66;36.89
42297;BME280;28985;47.456;19.016;2022-09-02T15:12:22;100288.78;;;25.41;36.42
42297;BME280;28985;47.456;19.016;2022-09-02T15:14:52;100292.25;;;25.24;37.76
42297;BME280;28985;47.456;19.016;2022-09-02T15:17:19;100290.81;;;25.33;37.56
42297;BME280;28985;47.456;19.016;2022-09-02T15:19:46;100291.75;;;25.27;38.97
42297;BME280;28985;47.456;19.016;2022-09-02T15:22:14;100291.69;;;25.58;38.43